createdAt,value
2017-04-05T00:00:01.078Z,7.6
2017-04-05T00:00:05.503Z,7.66
2017-04-05T00:00:09.809Z,7.63
2017-04-05T00:00:14.120Z,7.62
2017-04-05T00:00:18.550Z,7.62
2017-04-05T00:00:22.975Z,7.62
2017-04-05T00:00:27.404Z,7.6
2017-04-05T00:00:31.719Z,7.62
2017-04-05T00:00:36.153Z,7.63
2017-04-05T00:00:40.582Z,7.6
2017-04-05T00:00:44.771Z,7.62
2017-04-05T00:00:49.204Z,7.74
2017-04-05T00:00:53.515Z,7.58
2017-04-05T00:00:57.821Z,7.62
2017-04-05T00:01:02.252Z,7.58
2017-04-05T00:01:06.686Z,7.62
2017-04-05T00:01:10.999Z,7.58
2017-04-05T00:01:15.421Z,7.67
2017-04-05T00:01:19.845Z,7.63
2017-04-05T00:01:24.278Z,7.63
2017-04-05T00:01:28.708Z,7.58
2017-04-05T00:01:33.015Z,7.7
2017-04-05T00:01:37.337Z,7.7
2017-04-05T00:01:41.646Z,7.67
2017-04-05T00:01:46.072Z,7.74
2017-04-05T00:01:50.490Z,7.73
2017-04-05T00:01:54.916Z,7.63
2017-04-05T00:01:59.347Z,7.67
2017-04-05T00:02:03.771Z,7.57
2017-04-05T00:02:08.080Z,7.58
2017-04-05T00:02:12.157Z,7.67
2017-04-05T00:02:16.590Z,7.6
2017-04-05T00:02:20.898Z,7.63
2017-04-05T00:02:25.322Z,7.73
2017-04-05T00:02:29.749Z,7.73
2017-04-05T00:02:33.942Z,7.7
2017-04-05T00:02:38.366Z,7.66
2017-04-05T00:02:42.787Z,7.67
2017-04-05T00:02:47.090Z,7.74
2017-04-05T00:02:51.159Z,7.63
2017-04-05T00:02:55.608Z,7.71
2017-04-05T00:03:00.029Z,7.63
2017-04-05T00:03:04.553Z,7.71
2017-04-05T00:03:08.978Z,7.62
2017-04-05T00:03:13.293Z,7.71
2017-04-05T00:03:17.712Z,7.76
2017-04-05T00:03:22.140Z,7.76
2017-04-05T00:03:26.363Z,7.69
2017-04-05T00:03:30.785Z,7.63
2017-04-05T00:03:35.215Z,7.7
2017-04-05T00:03:39.642Z,7.81
2017-04-05T00:03:43.948Z,7.71
2017-04-05T00:03:48.375Z,7.73
2017-04-05T00:03:52.685Z,7.79
2017-04-05T00:03:57.104Z,7.7
2017-04-05T00:04:01.528Z,7.63
2017-04-05T00:04:05.838Z,7.7
2017-04-05T00:04:10.268Z,7.79
2017-04-05T00:04:14.691Z,7.69
2017-04-05T00:04:18.993Z,7.7
2017-04-05T00:04:23.424Z,7.69
2017-04-05T00:04:27.846Z,7.62
2017-04-05T00:04:32.045Z,7.74
2017-04-05T00:04:36.471Z,7.66
2017-04-05T00:04:40.779Z,7.74
2017-04-05T00:04:45.205Z,7.69
2017-04-05T00:04:49.632Z,7.71
2017-04-05T00:04:54.052Z,7.7
2017-04-05T00:04:58.484Z,7.74
2017-04-05T00:05:02.915Z,7.77
2017-04-05T00:05:07.221Z,7.74
2017-04-05T00:05:11.646Z,7.74
2017-04-05T00:05:15.960Z,7.74
2017-04-05T00:05:19.923Z,7.7
2017-04-05T00:05:24.364Z,7.73
2017-04-05T00:05:28.796Z,7.71
2017-04-05T00:05:32.995Z,7.77
2017-04-05T00:05:37.196Z,7.69
2017-04-05T00:05:41.621Z,7.74
2017-04-05T00:05:45.826Z,7.73
2017-04-05T00:05:50.265Z,7.73
2017-04-05T00:05:54.583Z,7.71
2017-04-05T00:05:58.897Z,7.77
2017-04-05T00:06:03.217Z,7.7
2017-04-05T00:06:07.567Z,7.73
2017-04-05T00:06:11.876Z,7.71
2017-04-05T00:06:16.302Z,7.79
2017-04-05T00:06:20.496Z,7.67
2017-04-05T00:06:24.706Z,7.69
2017-04-05T00:06:29.137Z,7.69
2017-04-05T00:06:33.569Z,7.67
2017-04-05T00:06:37.875Z,7.69
2017-04-05T00:06:42.085Z,7.73
2017-04-05T00:06:46.521Z,7.66
2017-04-05T00:06:50.840Z,7.7
2017-04-05T00:06:55.151Z,7.7
2017-04-05T00:06:59.583Z,7.69
2017-04-05T00:07:03.784Z,7.71
2017-04-05T00:07:08.104Z,7.66
2017-04-05T00:07:12.539Z,7.67
2017-04-05T00:07:16.968Z,7.6
2017-04-05T00:07:21.412Z,7.6
2017-04-05T00:07:25.616Z,7.57
2017-04-05T00:07:29.942Z,7.58
2017-04-05T00:07:34.143Z,7.63
2017-04-05T00:07:38.345Z,7.71
2017-04-05T00:07:42.666Z,7.57
2017-04-05T00:07:46.994Z,7.7
2017-04-05T00:07:51.420Z,7.66
2017-04-05T00:07:55.613Z,7.77
2017-04-05T00:08:00.038Z,7.66
2017-04-05T00:08:03.887Z,7.74
2017-04-05T00:08:08.318Z,7.6
2017-04-05T00:08:12.637Z,7.63
2017-04-05T00:08:16.830Z,7.63
2017-04-05T00:08:21.143Z,7.67
2017-04-05T00:08:25.487Z,7.67
2017-04-05T00:08:29.799Z,7.73
2017-04-05T00:08:34.114Z,7.66
2017-04-05T00:08:38.578Z,7.57
2017-04-05T00:08:42.900Z,7.62
2017-04-05T00:08:47.104Z,7.62
2017-04-05T00:08:51.410Z,7.63
2017-04-05T00:08:55.266Z,7.58
2017-04-05T00:08:59.720Z,7.57
2017-04-05T00:09:04.037Z,7.55
2017-04-05T00:09:08.461Z,7.62
2017-04-05T00:09:12.789Z,7.6
2017-04-05T00:09:17.249Z,7.62
2017-04-05T00:09:21.441Z,7.58
2017-04-05T00:09:25.522Z,7.67
2017-04-05T00:09:29.953Z,7.63
2017-04-05T00:09:34.187Z,7.62
2017-04-05T00:09:38.499Z,7.57
2017-04-05T00:09:42.935Z,7.58
2017-04-05T00:09:47.246Z,7.62
2017-04-05T00:09:51.564Z,7.62
2017-04-05T00:09:55.760Z,7.57
2017-04-05T00:10:00.078Z,7.7
2017-04-05T00:10:04.662Z,7.66
2017-04-05T00:10:09.113Z,7.67
2017-04-05T00:10:13.427Z,7.6
2017-04-05T00:10:17.744Z,7.62
2017-04-05T00:10:22.182Z,7.63
2017-04-05T00:10:26.511Z,7.6
2017-04-05T00:10:30.825Z,7.6
2017-04-05T00:10:35.253Z,7.66
2017-04-05T00:10:39.568Z,7.58
2017-04-05T00:10:43.655Z,7.67
2017-04-05T00:10:47.977Z,7.58
2017-04-05T00:10:52.297Z,7.57
2017-04-05T00:10:56.724Z,7.62
2017-04-05T00:11:01.164Z,7.58
2017-04-05T00:11:05.480Z,7.62
2017-04-05T00:11:09.560Z,7.54
2017-04-05T00:11:13.992Z,7.6
2017-04-05T00:11:18.424Z,7.62
2017-04-05T00:11:22.863Z,7.63
2017-04-05T00:11:27.289Z,7.6
2017-04-05T00:11:31.512Z,7.6
2017-04-05T00:11:35.948Z,7.6
2017-04-05T00:11:40.265Z,7.55
2017-04-05T00:11:44.693Z,7.58
2017-04-05T00:11:49.121Z,7.55
2017-04-05T00:11:53.554Z,7.6
2017-04-05T00:11:57.863Z,7.55
2017-04-05T00:12:02.600Z,7.63
2017-04-05T00:12:06.790Z,7.58
2017-04-05T00:12:11.214Z,7.54
2017-04-05T00:12:15.525Z,7.6
2017-04-05T00:12:19.842Z,7.52
2017-04-05T00:12:24.158Z,7.62
2017-04-05T00:12:28.473Z,7.51
2017-04-05T00:12:32.905Z,7.58
2017-04-05T00:12:37.338Z,7.6
2017-04-05T00:12:41.756Z,7.63
2017-04-05T00:12:46.067Z,7.55
2017-04-05T00:12:50.497Z,7.54
2017-04-05T00:12:54.804Z,7.63
2017-04-05T00:12:59.226Z,7.55
2017-04-05T00:13:03.676Z,7.58
2017-04-05T00:13:08.103Z,7.55
2017-04-05T00:13:12.529Z,7.58
2017-04-05T00:13:16.948Z,7.55
2017-04-05T00:13:21.415Z,7.57
2017-04-05T00:13:25.838Z,7.6
2017-04-05T00:13:30.140Z,7.55
2017-04-05T00:13:34.569Z,7.54
2017-04-05T00:13:39.001Z,7.52
2017-04-05T00:13:43.460Z,7.57
2017-04-05T00:13:47.880Z,7.57
2017-04-05T00:13:52.307Z,7.58
2017-04-05T00:13:56.732Z,7.55
2017-04-05T00:14:01.157Z,7.57
2017-04-05T00:14:05.579Z,7.57
2017-04-05T00:14:09.999Z,7.55
2017-04-05T00:14:14.422Z,7.52
2017-04-05T00:14:18.853Z,7.54
2017-04-05T00:14:23.041Z,7.63
2017-04-05T00:14:27.460Z,7.55
2017-04-05T00:14:31.770Z,7.54
2017-04-05T00:14:36.222Z,7.54
2017-04-05T00:14:40.645Z,7.55
2017-04-05T00:14:44.948Z,7.52
2017-04-05T00:14:49.376Z,7.48
2017-04-05T00:14:53.794Z,7.52
2017-04-05T00:14:58.217Z,7.57
2017-04-05T00:15:02.642Z,7.55
2017-04-05T00:15:07.065Z,7.55
2017-04-05T00:15:11.500Z,7.54
2017-04-05T00:15:15.840Z,7.55
2017-04-05T00:15:20.297Z,7.57
2017-04-05T00:15:24.740Z,7.58
2017-04-05T00:15:29.049Z,7.57
2017-04-05T00:15:33.479Z,7.58
2017-04-05T00:15:37.913Z,7.58
2017-04-05T00:15:42.220Z,7.58
2017-04-05T00:15:46.526Z,7.55
2017-04-05T00:15:50.839Z,7.55
2017-04-05T00:15:55.259Z,7.58
2017-04-05T00:15:59.569Z,7.6
2017-04-05T00:16:04.145Z,7.57
2017-04-05T00:16:08.599Z,7.58
2017-04-05T00:16:13.029Z,7.52
2017-04-05T00:16:17.226Z,7.57
2017-04-05T00:16:21.664Z,7.58
2017-04-05T00:16:26.092Z,7.52
2017-04-05T00:16:30.281Z,7.54
2017-04-05T00:16:34.702Z,7.52
2017-04-05T00:16:39.128Z,7.54
2017-04-05T00:16:43.434Z,7.45
2017-04-05T00:16:47.743Z,7.5
2017-04-05T00:16:52.166Z,7.57
2017-04-05T00:16:56.485Z,7.62
2017-04-05T00:17:00.913Z,7.55
2017-04-05T00:17:05.252Z,7.54
2017-04-05T00:17:09.676Z,7.55
2017-04-05T00:17:14.102Z,7.6
2017-04-05T00:17:18.528Z,7.62
2017-04-05T00:17:22.946Z,7.55
2017-04-05T00:17:27.370Z,7.54
2017-04-05T00:17:31.805Z,7.54
2017-04-05T00:17:36.235Z,7.57
2017-04-05T00:17:40.659Z,7.5
2017-04-05T00:17:44.965Z,7.51
2017-04-05T00:17:49.408Z,7.47
2017-04-05T00:17:53.830Z,7.54
2017-04-05T00:17:58.247Z,7.5
2017-04-05T00:18:02.544Z,7.52
2017-04-05T00:18:06.856Z,7.52
2017-04-05T00:18:11.160Z,7.48
2017-04-05T00:18:15.582Z,7.57
2017-04-05T00:18:19.890Z,7.54
2017-04-05T00:18:24.310Z,7.54
2017-04-05T00:18:28.729Z,7.55
2017-04-05T00:18:33.160Z,7.51
2017-04-05T00:18:37.482Z,7.47
2017-04-05T00:18:41.903Z,7.57
2017-04-05T00:18:46.329Z,7.48
2017-04-05T00:18:50.765Z,7.58
2017-04-05T00:18:54.954Z,7.54
2017-04-05T00:18:59.378Z,7.57
2017-04-05T00:19:04.039Z,7.52
2017-04-05T00:19:08.462Z,7.57
2017-04-05T00:19:12.882Z,7.51
2017-04-05T00:19:17.307Z,7.5
2017-04-05T00:19:21.727Z,7.54
2017-04-05T00:19:26.148Z,7.51
2017-04-05T00:19:30.450Z,7.5
2017-04-05T00:19:34.761Z,7.5
2017-04-05T00:19:39.213Z,7.55
2017-04-05T00:19:43.635Z,7.51
2017-04-05T00:19:48.058Z,7.51
2017-04-05T00:19:52.361Z,7.52
2017-04-05T00:19:56.793Z,7.52
2017-04-05T00:20:01.214Z,7.54
2017-04-05T00:20:05.526Z,7.6
2017-04-05T00:20:09.713Z,7.58
2017-04-05T00:20:14.027Z,7.52
2017-04-05T00:20:18.449Z,7.58
2017-04-05T00:20:22.873Z,7.5
2017-04-05T00:20:27.181Z,7.5
2017-04-05T00:20:31.608Z,7.51
2017-04-05T00:20:36.031Z,7.54
2017-04-05T00:20:40.456Z,7.58
2017-04-05T00:20:44.762Z,7.55
2017-04-05T00:20:49.075Z,7.51
2017-04-05T00:20:53.266Z,7.55
2017-04-05T00:20:57.691Z,7.51
2017-04-05T00:21:02.117Z,7.48
2017-04-05T00:21:06.547Z,7.55
2017-04-05T00:21:10.980Z,7.48
2017-04-05T00:21:15.403Z,7.45
2017-04-05T00:21:19.835Z,7.55
2017-04-05T00:21:24.262Z,7.51
2017-04-05T00:21:28.572Z,7.5
2017-04-05T00:21:32.881Z,7.54
2017-04-05T00:21:37.192Z,7.55
2017-04-05T00:21:41.644Z,7.55
2017-04-05T00:21:45.714Z,7.51
2017-04-05T00:21:50.144Z,7.52
2017-04-05T00:21:54.570Z,7.5
2017-04-05T00:21:58.996Z,7.51
2017-04-05T00:22:03.303Z,7.57
2017-04-05T00:22:07.609Z,7.58
2017-04-05T00:22:11.940Z,7.58
2017-04-05T00:22:16.369Z,7.55
2017-04-05T00:22:20.805Z,7.45
2017-04-05T00:22:25.235Z,7.5
2017-04-05T00:22:29.543Z,7.48
2017-04-05T00:22:33.969Z,7.51
2017-04-05T00:22:38.396Z,7.48
2017-04-05T00:22:42.706Z,7.48
2017-04-05T00:22:47.142Z,7.57
2017-04-05T00:22:51.562Z,7.57
2017-04-05T00:22:55.979Z,7.55
2017-04-05T00:23:00.403Z,7.55
2017-04-05T00:23:04.762Z,7.54
2017-04-05T00:23:09.070Z,7.52
2017-04-05T00:23:13.496Z,7.54
2017-04-05T00:23:17.922Z,7.57
2017-04-05T00:23:22.348Z,7.54
2017-04-05T00:23:26.767Z,7.55
2017-04-05T00:23:30.952Z,7.57
2017-04-05T00:23:35.378Z,7.47
2017-04-05T00:23:39.828Z,7.47
2017-04-05T00:23:44.252Z,7.44
2017-04-05T00:23:48.670Z,7.58
2017-04-05T00:23:53.110Z,7.54
2017-04-05T00:23:57.562Z,7.54
2017-04-05T00:24:02.183Z,7.57
2017-04-05T00:24:06.489Z,7.48
2017-04-05T00:24:10.920Z,7.51
2017-04-05T00:24:15.381Z,7.48
2017-04-05T00:24:19.567Z,7.5
2017-04-05T00:24:24.001Z,7.51
2017-04-05T00:24:28.427Z,7.57
2017-04-05T00:24:32.762Z,7.48
2017-04-05T00:24:37.191Z,7.54
2017-04-05T00:24:41.620Z,7.55
2017-04-05T00:24:45.938Z,7.57
2017-04-05T00:24:50.394Z,7.55
2017-04-05T00:24:54.815Z,7.55
2017-04-05T00:24:59.235Z,7.5
2017-04-05T00:25:03.723Z,7.52
2017-04-05T00:25:08.160Z,7.5
2017-04-05T00:25:12.589Z,7.52
2017-04-05T00:25:16.892Z,7.54
2017-04-05T00:25:21.327Z,7.52
2017-04-05T00:25:25.773Z,7.5
2017-04-05T00:25:30.200Z,7.52
2017-04-05T00:25:34.637Z,7.48
2017-04-05T00:25:39.090Z,7.54
2017-04-05T00:25:43.398Z,7.48
2017-04-05T00:25:47.705Z,7.5
2017-04-05T00:25:52.167Z,7.48
2017-04-05T00:25:56.474Z,7.51
2017-04-05T00:26:00.780Z,7.5
2017-04-05T00:26:05.211Z,7.51
2017-04-05T00:26:09.402Z,7.5
2017-04-05T00:26:13.831Z,7.47
2017-04-05T00:26:18.259Z,7.52
2017-04-05T00:26:22.684Z,7.51
2017-04-05T00:26:26.993Z,7.58
2017-04-05T00:26:31.418Z,7.48
2017-04-05T00:26:35.729Z,7.54
2017-04-05T00:26:40.159Z,7.48
2017-04-05T00:26:44.583Z,7.52
2017-04-05T00:26:48.895Z,7.55
2017-04-05T00:26:53.354Z,7.48
2017-04-05T00:26:57.776Z,7.47
2017-04-05T00:27:02.307Z,7.55
2017-04-05T00:27:06.618Z,7.51
2017-04-05T00:27:11.044Z,7.42
2017-04-05T00:27:15.471Z,7.51
2017-04-05T00:27:19.788Z,7.5
2017-04-05T00:27:24.227Z,7.51
2017-04-05T00:27:28.544Z,7.54
2017-04-05T00:27:32.966Z,7.54
2017-04-05T00:27:37.276Z,7.51
2017-04-05T00:27:41.696Z,7.47
2017-04-05T00:27:46.130Z,7.52
2017-04-05T00:27:50.447Z,7.51
2017-04-05T00:27:54.922Z,7.52
2017-04-05T00:27:59.352Z,7.51
2017-04-05T00:28:04.078Z,7.55
2017-04-05T00:28:08.387Z,7.51
2017-04-05T00:28:12.815Z,7.55
2017-04-05T00:28:17.247Z,7.45
2017-04-05T00:28:21.666Z,7.55
2017-04-05T00:28:26.086Z,7.48
2017-04-05T00:28:30.393Z,7.58
2017-04-05T00:28:34.705Z,7.42
2017-04-05T00:28:39.154Z,7.52
2017-04-05T00:28:43.575Z,7.51
2017-04-05T00:28:47.993Z,7.52
2017-04-05T00:28:52.304Z,7.45
2017-04-05T00:28:56.731Z,7.55
2017-04-05T00:29:01.153Z,7.58
2017-04-05T00:29:05.584Z,7.48
2017-04-05T00:29:09.773Z,7.6
2017-04-05T00:29:14.085Z,7.45
2017-04-05T00:29:18.512Z,7.51
2017-04-05T00:29:22.939Z,7.58
2017-04-05T00:29:27.390Z,7.48
2017-04-05T00:29:31.704Z,7.54
2017-04-05T00:29:36.017Z,7.57
2017-04-05T00:29:40.445Z,7.5
2017-04-05T00:29:44.892Z,7.54
2017-04-05T00:29:49.314Z,7.55
2017-04-05T00:29:53.744Z,7.45
2017-04-05T00:29:58.048Z,7.52
2017-04-05T00:30:02.471Z,7.54
2017-04-05T00:30:06.807Z,7.5
2017-04-05T00:30:11.233Z,7.48
2017-04-05T00:30:15.656Z,7.58
2017-04-05T00:30:19.850Z,7.55
2017-04-05T00:30:24.287Z,7.55
2017-04-05T00:30:28.590Z,7.47
2017-04-05T00:30:33.014Z,7.55
2017-04-05T00:30:37.447Z,7.45
2017-04-05T00:30:41.876Z,7.62
2017-04-05T00:30:46.298Z,7.45
2017-04-05T00:30:50.725Z,7.54
2017-04-05T00:30:55.167Z,7.5
2017-04-05T00:30:59.588Z,7.54
2017-04-05T00:31:04.021Z,7.5
2017-04-05T00:31:08.326Z,7.48
2017-04-05T00:31:12.633Z,7.54
2017-04-05T00:31:17.060Z,7.51
2017-04-05T00:31:21.483Z,7.55
2017-04-05T00:31:25.910Z,7.57
2017-04-05T00:31:30.332Z,7.44
2017-04-05T00:31:34.640Z,7.51
2017-04-05T00:31:39.069Z,7.55
2017-04-05T00:31:43.519Z,7.52
2017-04-05T00:31:47.948Z,7.5
2017-04-05T00:31:52.381Z,7.44
2017-04-05T00:31:56.814Z,7.47
2017-04-05T00:32:01.243Z,7.51
2017-04-05T00:32:05.559Z,7.57
2017-04-05T00:32:09.864Z,7.48
2017-04-05T00:32:14.293Z,7.48
2017-04-05T00:32:18.596Z,7.52
2017-04-05T00:32:23.030Z,7.42
2017-04-05T00:32:27.461Z,7.54
2017-04-05T00:32:31.770Z,7.44
2017-04-05T00:32:36.194Z,7.48
2017-04-05T00:32:40.621Z,7.48
2017-04-05T00:32:44.922Z,7.54
2017-04-05T00:32:49.229Z,7.54
2017-04-05T00:32:53.540Z,7.55
2017-04-05T00:32:57.960Z,7.5
2017-04-05T00:33:02.384Z,7.45
2017-04-05T00:33:06.814Z,7.44
2017-04-05T00:33:11.240Z,7.47
2017-04-05T00:33:15.669Z,7.52
2017-04-05T00:33:20.094Z,7.48
2017-04-05T00:33:24.437Z,7.51
2017-04-05T00:33:28.859Z,7.58
2017-04-05T00:33:33.285Z,7.45
2017-04-05T00:33:37.709Z,7.42
2017-04-05T00:33:42.158Z,7.54
2017-04-05T00:33:46.351Z,7.52
2017-04-05T00:33:50.769Z,7.52
2017-04-05T00:33:55.082Z,7.42
2017-04-05T00:33:59.512Z,7.48
2017-04-05T00:34:03.944Z,7.55
2017-04-05T00:34:08.246Z,7.54
2017-04-05T00:34:12.667Z,7.47
2017-04-05T00:34:17.119Z,7.48
2017-04-05T00:34:21.546Z,7.52
2017-04-05T00:34:25.967Z,7.5
2017-04-05T00:34:30.281Z,7.45
2017-04-05T00:34:34.737Z,7.55
2017-04-05T00:34:39.041Z,7.52
2017-04-05T00:34:43.469Z,7.5
2017-04-05T00:34:47.896Z,7.48
2017-04-05T00:34:52.330Z,7.51
2017-04-05T00:34:56.750Z,7.48
2017-04-05T00:35:01.172Z,7.45
2017-04-05T00:35:05.685Z,7.44
2017-04-05T00:35:10.109Z,7.55
2017-04-05T00:35:14.310Z,7.51
2017-04-05T00:35:18.616Z,7.52
2017-04-05T00:35:23.051Z,7.54
2017-04-05T00:35:27.483Z,7.47
2017-04-05T00:35:31.672Z,7.45
2017-04-05T00:35:36.093Z,7.54
2017-04-05T00:35:40.399Z,7.54
2017-04-05T00:35:44.851Z,7.54
2017-04-05T00:35:49.293Z,7.47
2017-04-05T00:35:53.720Z,7.5
2017-04-05T00:35:58.152Z,7.54
2017-04-05T00:36:02.466Z,7.5
2017-04-05T00:36:06.769Z,7.55
2017-04-05T00:36:11.076Z,7.52
2017-04-05T00:36:15.500Z,7.48
2017-04-05T00:36:19.933Z,7.44
2017-04-05T00:36:24.243Z,7.51
2017-04-05T00:36:28.552Z,7.47
2017-04-05T00:36:32.973Z,7.51
2017-04-05T00:36:37.400Z,7.47
2017-04-05T00:36:41.848Z,7.47
2017-04-05T00:36:46.267Z,7.52
2017-04-05T00:36:50.696Z,7.44
2017-04-05T00:36:55.132Z,7.54
2017-04-05T00:36:59.557Z,7.5
2017-04-05T00:37:04.013Z,7.52
2017-04-05T00:37:08.451Z,7.58
2017-04-05T00:37:12.904Z,7.39
2017-04-05T00:37:17.214Z,7.48
2017-04-05T00:37:21.642Z,7.44
2017-04-05T00:37:25.951Z,7.44
2017-04-05T00:37:30.378Z,7.48
2017-04-05T00:37:34.687Z,7.48
2017-04-05T00:37:39.001Z,7.51
2017-04-05T00:37:43.426Z,7.55
2017-04-05T00:37:47.849Z,7.42
2017-04-05T00:37:52.034Z,7.47
2017-04-05T00:37:56.461Z,7.44
2017-04-05T00:38:00.899Z,7.5
2017-04-05T00:38:05.472Z,7.48
2017-04-05T00:38:09.662Z,7.48
2017-04-05T00:38:13.971Z,7.54
2017-04-05T00:38:18.396Z,7.52
2017-04-05T00:38:22.347Z,7.5
2017-04-05T00:38:26.774Z,7.41
2017-04-05T00:38:31.199Z,7.45
2017-04-05T00:38:35.512Z,7.48
2017-04-05T00:38:39.937Z,7.45
2017-04-05T00:38:44.238Z,7.48
2017-04-05T00:38:48.670Z,7.47
2017-04-05T00:38:53.121Z,7.54
2017-04-05T00:38:57.543Z,7.48
2017-04-05T00:39:01.963Z,7.47
2017-04-05T00:39:06.394Z,7.51
2017-04-05T00:39:10.827Z,7.48
2017-04-05T00:39:15.257Z,7.51
2017-04-05T00:39:19.677Z,7.5
2017-04-05T00:39:23.986Z,7.47
2017-04-05T00:39:28.414Z,7.45
2017-04-05T00:39:32.840Z,7.47
2017-04-05T00:39:37.273Z,7.37
2017-04-05T00:39:41.702Z,7.45
2017-04-05T00:39:46.160Z,7.47
2017-04-05T00:39:50.462Z,7.51
2017-04-05T00:39:54.767Z,7.47
2017-04-05T00:39:59.190Z,7.48
2017-04-05T00:40:03.621Z,7.44
2017-04-05T00:40:08.049Z,7.47
2017-04-05T00:40:12.482Z,7.41
2017-04-05T00:40:16.798Z,7.45
2017-04-05T00:40:21.219Z,7.51
2017-04-05T00:40:25.529Z,7.48
2017-04-05T00:40:29.838Z,7.51
2017-04-05T00:40:34.261Z,7.5
2017-04-05T00:40:38.686Z,7.45
2017-04-05T00:40:43.110Z,7.5
2017-04-05T00:40:47.528Z,7.37
2017-04-05T00:40:51.846Z,7.5
2017-04-05T00:40:56.276Z,7.48
2017-04-05T00:41:00.583Z,7.52
2017-04-05T00:41:04.895Z,7.52
2017-04-05T00:41:09.325Z,7.51
2017-04-05T00:41:13.743Z,7.52
2017-04-05T00:41:17.933Z,7.52
2017-04-05T00:41:22.362Z,7.5
2017-04-05T00:41:26.789Z,7.5
2017-04-05T00:41:31.095Z,7.52
2017-04-05T00:41:35.406Z,7.5
2017-04-05T00:41:39.835Z,7.52
2017-04-05T00:41:44.266Z,7.54
2017-04-05T00:41:48.685Z,7.51
2017-04-05T00:41:53.106Z,7.51
2017-04-05T00:41:57.535Z,7.48
2017-04-05T00:42:02.168Z,7.44
2017-04-05T00:42:06.476Z,7.5
2017-04-05T00:42:10.901Z,7.52
2017-04-05T00:42:15.330Z,7.47
2017-04-05T00:42:19.759Z,7.52
2017-04-05T00:42:23.951Z,7.5
2017-04-05T00:42:28.254Z,7.52
2017-04-05T00:42:32.678Z,7.47
2017-04-05T00:42:36.870Z,7.47
2017-04-05T00:42:41.298Z,7.42
2017-04-05T00:42:45.727Z,7.5
2017-04-05T00:42:50.171Z,7.47
2017-04-05T00:42:54.627Z,7.48
2017-04-05T00:42:59.054Z,7.45
2017-04-05T00:43:03.480Z,7.45
2017-04-05T00:43:07.787Z,7.47
2017-04-05T00:43:11.972Z,7.47
2017-04-05T00:43:16.399Z,7.47
2017-04-05T00:43:20.832Z,7.5
2017-04-05T00:43:25.025Z,7.42
2017-04-05T00:43:29.449Z,7.5
2017-04-05T00:43:33.872Z,7.52
2017-04-05T00:43:38.185Z,7.48
2017-04-05T00:43:42.608Z,7.47
2017-04-05T00:43:47.029Z,7.47
2017-04-05T00:43:51.459Z,7.42
2017-04-05T00:43:55.757Z,7.41
2017-04-05T00:44:00.222Z,7.47
2017-04-05T00:44:04.419Z,7.45
2017-04-05T00:44:08.842Z,7.45
2017-04-05T00:44:13.030Z,7.48
2017-04-05T00:44:17.339Z,7.55
2017-04-05T00:44:21.793Z,7.41
2017-04-05T00:44:26.210Z,7.45
2017-04-05T00:44:30.636Z,7.51
2017-04-05T00:44:35.067Z,7.51
2017-04-05T00:44:39.493Z,7.47
2017-04-05T00:44:43.913Z,7.42
2017-04-05T00:44:48.337Z,7.41
2017-04-05T00:44:52.767Z,7.48
2017-04-05T00:44:57.227Z,7.47
2017-04-05T00:45:01.646Z,7.47
2017-04-05T00:45:06.079Z,7.42
2017-04-05T00:45:10.512Z,7.5
2017-04-05T00:45:14.936Z,7.54
2017-04-05T00:45:19.366Z,7.55
2017-04-05T00:45:23.683Z,7.51
2017-04-05T00:45:27.991Z,7.6
2017-04-05T00:45:32.431Z,7.45
2017-04-05T00:45:36.853Z,7.44
2017-04-05T00:45:41.040Z,7.5
2017-04-05T00:45:45.357Z,7.45
2017-04-05T00:45:49.783Z,7.48
2017-04-05T00:45:54.206Z,7.47
2017-04-05T00:45:58.632Z,7.45
2017-04-05T00:46:03.167Z,7.47
2017-04-05T00:46:07.473Z,7.45
2017-04-05T00:46:11.898Z,7.51
2017-04-05T00:46:16.323Z,7.48
2017-04-05T00:46:20.639Z,7.5
2017-04-05T00:46:25.105Z,7.41
2017-04-05T00:46:29.421Z,7.45
2017-04-05T00:46:33.849Z,7.52
2017-04-05T00:46:38.163Z,7.45
2017-04-05T00:46:42.589Z,7.47
2017-04-05T00:46:47.016Z,7.51
2017-04-05T00:46:51.470Z,7.45
2017-04-05T00:46:55.893Z,7.5
2017-04-05T00:47:00.324Z,7.47
2017-04-05T00:47:04.632Z,7.5
2017-04-05T00:47:09.061Z,7.41
2017-04-05T00:47:13.486Z,7.45
2017-04-05T00:47:17.915Z,7.47
2017-04-05T00:47:22.219Z,7.51
2017-04-05T00:47:26.525Z,7.39
2017-04-05T00:47:30.974Z,7.52
2017-04-05T00:47:35.395Z,7.48
2017-04-05T00:47:39.823Z,7.51
2017-04-05T00:47:44.248Z,7.48
2017-04-05T00:47:48.670Z,7.44
2017-04-05T00:47:53.091Z,7.52
2017-04-05T00:47:57.513Z,7.5
2017-04-05T00:48:02.088Z,7.48
2017-04-05T00:48:06.523Z,7.47
2017-04-05T00:48:10.827Z,7.51
2017-04-05T00:48:15.254Z,7.51
2017-04-05T00:48:19.328Z,7.55
2017-04-05T00:48:23.752Z,7.5
2017-04-05T00:48:28.064Z,7.5
2017-04-05T00:48:32.488Z,7.45
2017-04-05T00:48:36.905Z,7.45
2017-04-05T00:48:41.328Z,7.47
2017-04-05T00:48:45.757Z,7.37
2017-04-05T00:48:50.210Z,7.48
2017-04-05T00:48:54.637Z,7.47
2017-04-05T00:48:59.066Z,7.45
2017-04-05T00:49:03.493Z,7.52
2017-04-05T00:49:07.804Z,7.52
2017-04-05T00:49:12.110Z,7.41
2017-04-05T00:49:16.531Z,7.5
2017-04-05T00:49:20.955Z,7.37
2017-04-05T00:49:25.404Z,7.47
2017-04-05T00:49:29.827Z,7.41
2017-04-05T00:49:34.132Z,7.51
2017-04-05T00:49:38.556Z,7.47
2017-04-05T00:49:43.006Z,7.44
2017-04-05T00:49:47.432Z,7.47
2017-04-05T00:49:51.873Z,7.5
2017-04-05T00:49:56.068Z,7.51
2017-04-05T00:50:00.488Z,7.51
2017-04-05T00:50:04.809Z,7.48
2017-04-05T00:50:09.234Z,7.55
2017-04-05T00:50:13.656Z,7.5
2017-04-05T00:50:17.961Z,7.45
2017-04-05T00:50:22.407Z,7.48
2017-04-05T00:50:26.715Z,7.47
2017-04-05T00:50:31.141Z,7.48
2017-04-05T00:50:35.563Z,7.47
2017-04-05T00:50:39.991Z,7.48
2017-04-05T00:50:44.416Z,7.47
2017-04-05T00:50:48.721Z,7.48
2017-04-05T00:50:53.043Z,7.48
2017-04-05T00:50:57.471Z,7.48
2017-04-05T00:51:01.898Z,7.41
2017-04-05T00:51:06.212Z,7.48
2017-04-05T00:51:10.634Z,7.39
2017-04-05T00:51:15.056Z,7.44
2017-04-05T00:51:19.478Z,7.47
2017-04-05T00:51:23.790Z,7.47
2017-04-05T00:51:28.220Z,7.39
2017-04-05T00:51:32.643Z,7.39
2017-04-05T00:51:36.950Z,7.36
2017-04-05T00:51:41.383Z,7.51
2017-04-05T00:51:45.574Z,7.44
2017-04-05T00:51:49.998Z,7.45
2017-04-05T00:51:54.431Z,7.42
2017-04-05T00:51:58.863Z,7.51
2017-04-05T00:52:03.288Z,7.45
2017-04-05T00:52:07.592Z,7.41
2017-04-05T00:52:11.895Z,7.45
2017-04-05T00:52:16.090Z,7.42
2017-04-05T00:52:20.517Z,7.39
2017-04-05T00:52:24.819Z,7.47
2017-04-05T00:52:29.244Z,7.36
2017-04-05T00:52:33.677Z,7.45
2017-04-05T00:52:38.006Z,7.44
2017-04-05T00:52:42.425Z,7.45
2017-04-05T00:52:46.730Z,7.52
2017-04-05T00:52:51.161Z,7.51
2017-04-05T00:52:55.588Z,7.51
2017-04-05T00:53:00.005Z,7.45
2017-04-05T00:53:04.432Z,7.39
2017-04-05T00:53:08.867Z,7.47
2017-04-05T00:53:13.299Z,7.5
2017-04-05T00:53:17.723Z,7.45
2017-04-05T00:53:22.144Z,7.47
2017-04-05T00:53:26.581Z,7.48
2017-04-05T00:53:31.013Z,7.51
2017-04-05T00:53:35.202Z,7.47
2017-04-05T00:53:39.639Z,7.45
2017-04-05T00:53:43.954Z,7.5
2017-04-05T00:53:48.261Z,7.47
2017-04-05T00:53:52.683Z,7.47
2017-04-05T00:53:56.994Z,7.48
2017-04-05T00:54:01.416Z,7.39
2017-04-05T00:54:06.030Z,7.44
2017-04-05T00:54:10.457Z,7.52
2017-04-05T00:54:14.887Z,7.41
2017-04-05T00:54:19.309Z,7.47
2017-04-05T00:54:23.615Z,7.47
2017-04-05T00:54:27.924Z,7.42
2017-04-05T00:54:32.363Z,7.45
2017-04-05T00:54:36.793Z,7.48
2017-04-05T00:54:41.094Z,7.47
2017-04-05T00:54:45.521Z,7.47
2017-04-05T00:54:49.945Z,7.5
2017-04-05T00:54:54.372Z,7.48
2017-04-05T00:54:58.676Z,7.51
2017-04-05T00:55:03.205Z,7.52
2017-04-05T00:55:07.638Z,7.45
2017-04-05T00:55:11.943Z,7.52
2017-04-05T00:55:16.365Z,7.51
2017-04-05T00:55:20.794Z,7.45
2017-04-05T00:55:25.221Z,7.44
2017-04-05T00:55:29.644Z,7.45
2017-04-05T00:55:33.956Z,7.48
2017-04-05T00:55:38.146Z,7.48
2017-04-05T00:55:42.467Z,7.54
2017-04-05T00:55:46.890Z,7.42
2017-04-05T00:55:51.312Z,7.48
2017-04-05T00:55:55.735Z,7.47
2017-04-05T00:56:00.163Z,7.52
2017-04-05T00:56:04.572Z,7.54
2017-04-05T00:56:08.876Z,7.5
2017-04-05T00:56:13.305Z,7.47
2017-04-05T00:56:17.736Z,7.48
2017-04-05T00:56:22.185Z,7.45
2017-04-05T00:56:26.617Z,7.5
2017-04-05T00:56:31.043Z,7.5
2017-04-05T00:56:35.360Z,7.48
2017-04-05T00:56:39.672Z,7.5
2017-04-05T00:56:43.979Z,7.58
2017-04-05T00:56:48.406Z,7.52
2017-04-05T00:56:52.835Z,7.6
2017-04-05T00:56:57.262Z,7.5
2017-04-05T00:57:01.697Z,7.51
2017-04-05T00:57:06.144Z,7.55
2017-04-05T00:57:10.570Z,7.52
2017-04-05T00:57:14.993Z,7.44
2017-04-05T00:57:19.418Z,7.58
2017-04-05T00:57:23.845Z,7.54
2017-04-05T00:57:28.269Z,7.5
2017-04-05T00:57:32.467Z,7.52
2017-04-05T00:57:36.775Z,7.54
2017-04-05T00:57:41.200Z,7.45
2017-04-05T00:57:45.620Z,7.5
2017-04-05T00:57:50.045Z,7.52
2017-04-05T00:57:54.465Z,7.48
2017-04-05T00:57:58.941Z,7.58
2017-04-05T00:58:03.366Z,7.54
2017-04-05T00:58:07.800Z,7.42
2017-04-05T00:58:12.129Z,7.54
2017-04-05T00:58:16.550Z,7.58
2017-04-05T00:58:20.849Z,7.55
2017-04-05T00:58:25.273Z,7.55
2017-04-05T00:58:29.578Z,7.55